createdAt,value
2019-04-07T00:00:26.522Z,100048.55
2019-04-07T00:00:59.792Z,100044.13
2019-04-07T00:01:37.776Z,100052.86
2019-04-07T00:02:09.344Z,100045.34
2019-04-07T00:02:42.475Z,100044.91
2019-04-07T00:03:16.538Z,100045.80
2019-04-07T00:03:48.321Z,100047.53
2019-04-07T00:04:20.285Z,100048.41
2019-04-07T00:04:52.141Z,100045.34
2019-04-07T00:05:25.629Z,100045.80
2019-04-07T00:05:57.514Z,100048.42
2019-04-07T00:06:31.642Z,100046.64
2019-04-07T00:07:03.775Z,100047.02
2019-04-07T00:07:36.939Z,100044.77
2019-04-07T00:08:10.170Z,100047.73
2019-04-07T00:08:41.371Z,100044.17
2019-04-07T00:09:12.637Z,100049.40
2019-04-07T00:09:45.795Z,100041.05
2019-04-07T00:10:19.245Z,100044.97
2019-04-07T00:10:50.596Z,100043.70
2019-04-07T00:11:25.578Z,100045.91
2019-04-07T00:11:59.137Z,100040.71
2019-04-07T00:12:31.013Z,100043.80
2019-04-07T00:13:02.870Z,100047.30
2019-04-07T00:13:36.496Z,100042.49
2019-04-07T00:14:07.691Z,100038.14
2019-04-07T00:14:41.028Z,100042.07
2019-04-07T00:15:12.181Z,100034.22
2019-04-07T00:15:43.419Z,100043.38
2019-04-07T00:16:14.603Z,100038.98
2019-04-07T00:16:48.339Z,100043.80
2019-04-07T00:17:20.619Z,100040.30
2019-04-07T00:17:54.352Z,100043.38
2019-04-07T00:18:31.272Z,100044.64
2019-04-07T00:19:02.515Z,100038.84
2019-04-07T00:19:33.942Z,100038.32
2019-04-07T00:20:08.868Z,100042.16
2019-04-07T00:20:40.283Z,100041.69
2019-04-07T00:21:11.608Z,100043.36
2019-04-07T00:21:42.968Z,100033.17
2019-04-07T00:22:18.793Z,100036.69
2019-04-07T00:22:50.061Z,100042.75
2019-04-07T00:23:21.378Z,100037.47
2019-04-07T00:23:54.552Z,100040.03
2019-04-07T00:24:27.697Z,100039.98
2019-04-07T00:24:59.534Z,100042.09
2019-04-07T00:25:30.968Z,100041.56
2019-04-07T00:26:02.293Z,100036.29
2019-04-07T00:26:33.782Z,100042.41
2019-04-07T00:27:10.281Z,100038.91
2019-04-07T00:27:41.518Z,100040.21
2019-04-07T00:28:12.785Z,100031.11
2019-04-07T00:28:44.019Z,100037.64
2019-04-07T00:29:15.565Z,100034.61
2019-04-07T00:29:46.985Z,100030.73
2019-04-07T00:30:20.294Z,100033.81
2019-04-07T00:30:51.510Z,100032.09
2019-04-07T00:31:22.833Z,100031.20
2019-04-07T00:31:55.995Z,100033.81
2019-04-07T00:32:27.368Z,100034.66
2019-04-07T00:33:00.861Z,100037.22
2019-04-07T00:33:33.529Z,100035.86
2019-04-07T00:34:05.256Z,100015.10
2019-04-07T00:34:36.884Z,100039.58
2019-04-07T00:35:08.244Z,100039.58
2019-04-07T00:35:42.835Z,100025.94
2019-04-07T00:36:16.539Z,100042.20
2019-04-07T00:36:47.822Z,100042.66
2019-04-07T00:37:19.100Z,100032.20
2019-04-07T00:37:50.345Z,100033.09
2019-04-07T00:38:21.602Z,100038.33
2019-04-07T00:38:52.828Z,100012.39
2019-04-07T00:39:23.986Z,100037.50
2019-04-07T00:40:00.000Z,100028.80
2019-04-07T00:40:31.159Z,100028.34
2019-04-07T00:41:04.603Z,100027.92
2019-04-07T00:41:36.427Z,100034.97
2019-04-07T00:42:09.657Z,100032.37
2019-04-07T00:42:41.321Z,100032.36
2019-04-07T00:43:13.606Z,100017.36
2019-04-07T00:43:44.920Z,100027.08
2019-04-07T00:44:18.064Z,100028.34
2019-04-07T00:44:49.678Z,100026.61
2019-04-07T00:45:21.502Z,100025.72
2019-04-07T00:45:54.676Z,100027.49
2019-04-07T00:46:27.957Z,100030.95
2019-04-07T00:46:59.791Z,100024.88
2019-04-07T00:47:31.415Z,100024.00
2019-04-07T00:48:04.496Z,100023.16
2019-04-07T00:48:37.613Z,100025.39
2019-04-07T00:49:13.837Z,100022.36
2019-04-07T00:49:46.568Z,100020.59
2019-04-07T00:50:20.730Z,100021.06
2019-04-07T00:50:51.977Z,100019.70
2019-04-07T00:51:23.226Z,100017.09
2019-04-07T00:51:55.831Z,100024.52
2019-04-07T00:52:27.319Z,100023.22
2019-04-07T00:53:01.273Z,100021.91
2019-04-07T00:53:32.594Z,100021.05
2019-04-07T00:54:06.172Z,100026.23
2019-04-07T00:54:38.418Z,100024.47
2019-04-07T00:55:09.966Z,100020.95
2019-04-07T00:55:41.746Z,100023.06
2019-04-07T00:56:15.823Z,100026.97
2019-04-07T00:56:47.014Z,100024.31
2019-04-07T00:57:19.886Z,100022.95
2019-04-07T00:57:53.707Z,100023.74
2019-04-07T00:58:24.936Z,100022.75
2019-04-07T00:58:56.171Z,100026.58
2019-04-07T00:59:28.680Z,100023.89
2019-04-07T01:00:00.450Z,100023.31
2019-04-07T01:00:33.775Z,100030.64
2019-04-07T01:01:06.314Z,100019.70
2019-04-07T01:01:38.193Z,100026.20
2019-04-07T01:02:10.580Z,100029.22
2019-04-07T01:02:42.996Z,100024.83
2019-04-07T01:03:15.214Z,100018.28
2019-04-07T01:03:46.506Z,100020.44
2019-04-07T01:04:17.715Z,100021.80
2019-04-07T01:04:49.035Z,100023.15
2019-04-07T01:05:33.707Z,100024.89
2019-04-07T01:05:54.470Z,100019.60
2019-04-07T01:06:26.149Z,100019.60
2019-04-07T01:07:01.698Z,100008.88
2019-04-07T01:07:33.437Z,100008.88
2019-04-07T01:08:05.217Z,100019.49
2019-04-07T01:08:37.484Z,100018.55
2019-04-07T01:09:09.141Z,100018.55
2019-04-07T01:09:40.368Z,100016.34
2019-04-07T01:10:11.516Z,100013.62
2019-04-07T01:10:44.608Z,100003.84
2019-04-07T01:11:20.297Z,100021.56
2019-04-07T01:11:56.112Z,100022.47
2019-04-07T01:12:29.342Z,100002.59
2019-04-07T01:13:01.047Z,100002.59
2019-04-07T01:13:32.253Z,100016.30
2019-04-07T01:14:03.432Z,100016.30
2019-04-07T01:14:36.793Z,100014.09
2019-04-07T01:15:09.911Z,100018.48
2019-04-07T01:15:41.717Z,100012.33
2019-04-07T01:16:13.150Z,99993.80
2019-04-07T01:16:45.538Z,100013.16
2019-04-07T01:17:16.838Z,100013.16
2019-04-07T01:17:48.701Z,100018.38
2019-04-07T01:18:25.796Z,100020.52
2019-04-07T01:18:57.178Z,100014.34
2019-04-07T01:19:30.001Z,100014.28
2019-04-07T01:20:07.364Z,100017.27
2019-04-07T01:20:40.536Z,99993.00
2019-04-07T01:21:11.739Z,100021.06
2019-04-07T01:21:43.547Z,99993.72
2019-04-07T01:22:15.409Z,100010.75
2019-04-07T01:22:47.360Z,100022.14
2019-04-07T01:23:19.215Z,100022.04
2019-04-07T01:23:51.065Z,100020.67
2019-04-07T01:24:24.384Z,100018.89
2019-04-07T01:24:57.445Z,100023.23
2019-04-07T01:25:29.264Z,100021.92
2019-04-07T01:26:03.150Z,100025.89
2019-04-07T01:26:37.172Z,100025.89
2019-04-07T01:27:08.356Z,100026.36
2019-04-07T01:27:40.080Z,100023.75
2019-04-07T01:28:12.042Z,100019.83
2019-04-07T01:28:45.631Z,99989.82
2019-04-07T01:29:18.792Z,100014.14
2019-04-07T01:29:50.662Z,100020.30
2019-04-07T01:30:23.875Z,100020.30
2019-04-07T01:30:55.149Z,100019.36
2019-04-07T01:31:26.413Z,100018.89
2019-04-07T01:32:01.832Z,100018.89
2019-04-07T01:32:33.067Z,100017.42
2019-04-07T01:33:04.467Z,100024.31
2019-04-07T01:33:35.618Z,100026.02
2019-04-07T01:34:07.517Z,100026.02
2019-04-07T01:34:40.714Z,100026.86
2019-04-07T01:35:13.763Z,100000.09
2019-04-07T01:35:49.219Z,100000.09
2019-04-07T01:36:20.111Z,100021.23
2019-04-07T01:36:53.474Z,100025.27
2019-04-07T01:37:26.295Z,99997.20
2019-04-07T01:37:57.464Z,99997.20
2019-04-07T01:38:29.075Z,100004.27
2019-04-07T01:39:00.842Z,100019.24
2019-04-07T01:39:34.953Z,100019.24
2019-04-07T01:40:06.266Z,100016.11
2019-04-07T01:40:37.459Z,100000.98
2019-04-07T01:41:23.725Z,100018.62
2019-04-07T01:41:59.711Z,100007.04
2019-04-07T01:42:33.420Z,99995.77
2019-04-07T01:43:09.226Z,100013.45
2019-04-07T01:43:42.482Z,100006.27
2019-04-07T01:44:27.655Z,100006.27
2019-04-07T01:45:18.113Z,100009.59
2019-04-07T01:45:49.944Z,100010.22
2019-04-07T01:46:39.420Z,100019.83
2019-04-07T01:47:21.039Z,100017.16
2019-04-07T01:48:12.638Z,100020.19
2019-04-07T01:48:45.783Z,100021.34
2019-04-07T01:49:27.235Z,100018.19
2019-04-07T01:50:17.385Z,100018.19
2019-04-07T01:50:57.122Z,100023.17
2019-04-07T01:51:30.979Z,100023.17
2019-04-07T01:52:13.043Z,100004.89
2019-04-07T01:52:47.260Z,100021.62
2019-04-07T01:53:32.395Z,100021.62
2019-04-07T01:54:08.702Z,100016.46
2019-04-07T01:55:00.167Z,100021.75
2019-04-07T01:55:37.485Z,100017.89
2019-04-07T01:56:14.046Z,100017.42
2019-04-07T01:56:53.991Z,100017.42
2019-04-07T01:57:36.894Z,100015.69
2019-04-07T01:58:08.127Z,99998.95
2019-04-07T01:58:39.275Z,99998.95
2019-04-07T01:59:28.895Z,100020.15
2019-04-07T02:00:00.758Z,100020.15
2019-04-07T02:00:34.879Z,100014.99
2019-04-07T02:01:19.879Z,100014.99
2019-04-07T02:02:13.538Z,100002.52
2019-04-07T02:02:46.691Z,100013.03
2019-04-07T02:03:20.367Z,100019.02
2019-04-07T02:04:00.184Z,100001.27
2019-04-07T02:04:33.572Z,100001.27
2019-04-07T02:05:24.284Z,100019.19
2019-04-07T02:06:06.743Z,100019.19
2019-04-07T02:06:50.199Z,100007.33
2019-04-07T02:07:24.616Z,100013.95
2019-04-07T02:08:15.521Z,100001.15
2019-04-07T02:08:48.584Z,100003.17
2019-04-07T02:09:22.574Z,100003.17
2019-04-07T02:09:55.720Z,100019.94
2019-04-07T02:10:29.069Z,100006.10
2019-04-07T02:11:08.337Z,100006.10
2019-04-07T02:11:50.474Z,100005.56
2019-04-07T02:12:35.047Z,100022.32
2019-04-07T02:13:08.553Z,100022.32
2019-04-07T02:13:46.758Z,100023.67
2019-04-07T02:14:27.731Z,100002.08
2019-04-07T02:15:03.875Z,100002.08
2019-04-07T02:15:37.234Z,100025.87
2019-04-07T02:16:10.439Z,100014.84
2019-04-07T02:16:44.218Z,100014.84
2019-04-07T02:17:20.263Z,100005.80
2019-04-07T02:18:03.603Z,100021.65
2019-04-07T02:18:35.402Z,100012.91
2019-04-07T02:19:09.649Z,100019.05
2019-04-07T02:19:46.066Z,100019.05
2019-04-07T02:20:41.239Z,100017.73
2019-04-07T02:21:17.387Z,100002.36
2019-04-07T02:21:57.286Z,100009.97
2019-04-07T02:22:40.792Z,100008.61
2019-04-07T02:23:16.498Z,100013.45
2019-04-07T02:23:49.631Z,100013.45
2019-04-07T02:24:38.899Z,99993.59
2019-04-07T02:25:19.934Z,100008.61
2019-04-07T02:25:53.185Z,100010.80
2019-04-07T02:26:33.257Z,100010.80
2019-04-07T02:27:09.864Z,100010.78
2019-04-07T02:27:49.051Z,100014.69
2019-04-07T02:28:23.030Z,100006.33
2019-04-07T02:29:04.983Z,100018.89
2019-04-07T02:29:54.357Z,100018.89
2019-04-07T02:30:33.369Z,99991.94
2019-04-07T02:31:25.024Z,99991.94
2019-04-07T02:32:00.175Z,100008.69
2019-04-07T02:32:31.502Z,100008.69
2019-04-07T02:33:09.328Z,100009.58
2019-04-07T02:33:59.958Z,99988.52
2019-04-07T02:34:34.060Z,100012.61
2019-04-07T02:35:08.708Z,100008.91
2019-04-07T02:35:42.284Z,100008.89
2019-04-07T02:36:23.916Z,100010.55
2019-04-07T02:37:09.997Z,99985.91
2019-04-07T02:37:55.068Z,100005.28
2019-04-07T02:38:31.638Z,100005.28
2019-04-07T02:39:22.044Z,100002.26
2019-04-07T02:40:11.853Z,100002.26
2019-04-07T02:40:47.211Z,100002.67
2019-04-07T02:41:27.447Z,100009.64
2019-04-07T02:42:17.160Z,100010.84
2019-04-07T02:42:56.306Z,100007.27
2019-04-07T02:43:32.753Z,100007.27
2019-04-07T02:44:06.869Z,100007.27
2019-04-07T02:44:57.307Z,100008.08
2019-04-07T02:45:36.615Z,100004.53
2019-04-07T02:46:15.761Z,99998.30
2019-04-07T02:46:56.765Z,100006.72
2019-04-07T02:47:35.615Z,100006.25
2019-04-07T02:48:25.161Z,100000.95
2019-04-07T02:49:01.868Z,100000.95
2019-04-07T02:49:41.172Z,100004.32
2019-04-07T02:50:15.414Z,100005.63
2019-04-07T02:50:54.954Z,100005.63
2019-04-07T02:51:28.109Z,100006.98
2019-04-07T02:52:11.298Z,99986.75
2019-04-07T02:53:01.536Z,99986.75
2019-04-07T02:53:33.145Z,100001.02
2019-04-07T02:54:10.778Z,100006.64
2019-04-07T02:54:57.883Z,100006.64
2019-04-07T02:55:39.556Z,100001.38
2019-04-07T02:56:13.356Z,99969.25
2019-04-07T02:56:58.167Z,100003.95
2019-04-07T02:57:34.161Z,100009.19
2019-04-07T02:58:10.365Z,100009.19
2019-04-07T02:59:00.061Z,100004.64
2019-04-07T02:59:35.331Z,100008.55
2019-04-07T03:00:07.591Z,100008.55
2019-04-07T03:00:41.378Z,100006.77
2019-04-07T03:01:18.057Z,100002.47
2019-04-07T03:01:57.446Z,100007.80
2019-04-07T03:02:36.410Z,100007.80
2019-04-07T03:03:13.032Z,100006.56
2019-04-07T03:04:03.763Z,100006.56
2019-04-07T03:04:44.451Z,99996.34
2019-04-07T03:05:20.973Z,100005.20
2019-04-07T03:06:04.963Z,99992.64
2019-04-07T03:06:54.808Z,99992.64
2019-04-07T03:07:36.059Z,100001.09
2019-04-07T03:08:10.235Z,99988.13
2019-04-07T03:09:00.183Z,99988.13
2019-04-07T03:09:52.308Z,100006.59
2019-04-07T03:10:31.466Z,100006.59
2019-04-07T03:11:07.366Z,99989.48
2019-04-07T03:11:56.425Z,100007.00
2019-04-07T03:12:27.799Z,100005.55
2019-04-07T03:13:16.660Z,100005.55
2019-04-07T03:14:00.196Z,99983.88
2019-04-07T03:14:37.244Z,100004.52
2019-04-07T03:15:13.410Z,100004.52
2019-04-07T03:15:46.571Z,100007.55
2019-04-07T03:16:22.593Z,100007.13
2019-04-07T03:17:13.815Z,100007.13
2019-04-07T03:17:50.061Z,100002.83
2019-04-07T03:18:31.627Z,100002.83
2019-04-07T03:19:10.956Z,100002.94
2019-04-07T03:19:58.946Z,100002.94
2019-04-07T03:20:36.190Z,99999.10
2019-04-07T03:21:10.340Z,100001.38
2019-04-07T03:21:44.211Z,100001.38
2019-04-07T03:22:33.768Z,100001.38
2019-04-07T03:23:09.486Z,99983.33
2019-04-07T03:23:53.319Z,100001.35
2019-04-07T03:24:30.537Z,99980.17
2019-04-07T03:25:15.687Z,99988.05
2019-04-07T03:25:51.549Z,99971.31
2019-04-07T03:26:29.325Z,99977.36
2019-04-07T03:27:05.849Z,99985.04
2019-04-07T03:27:52.703Z,99985.04
2019-04-07T03:28:26.272Z,99996.48
2019-04-07T03:29:01.217Z,99997.40
2019-04-07T03:29:38.514Z,99997.40
2019-04-07T03:30:14.549Z,99995.19
2019-04-07T03:31:02.110Z,99981.80
2019-04-07T03:31:39.042Z,99981.80
2019-04-07T03:32:15.862Z,99996.23
2019-04-07T03:33:06.030Z,99998.30
2019-04-07T03:33:54.278Z,99998.30
2019-04-07T03:34:32.635Z,100000.45
2019-04-07T03:35:15.053Z,100000.73
2019-04-07T03:35:50.966Z,100000.73
2019-04-07T03:37:09.898Z,99996.27
2019-04-07T03:37:33.348Z,99999.77
2019-04-07T03:38:12.119Z,99986.26
2019-04-07T03:38:46.088Z,100003.80
2019-04-07T03:39:31.867Z,100003.25
2019-04-07T03:40:15.701Z,100001.89
2019-04-07T03:40:49.850Z,100001.89
2019-04-07T03:41:23.850Z,99984.26
2019-04-07T03:41:55.545Z,100001.06
2019-04-07T03:42:26.823Z,100001.06
2019-04-07T03:43:19.921Z,100003.58
2019-04-07T03:43:55.898Z,100003.58
2019-04-07T03:44:32.305Z,100000.56
2019-04-07T03:45:10.148Z,100002.63
2019-04-07T03:45:46.312Z,100002.63
2019-04-07T03:46:37.545Z,99981.84
2019-04-07T03:47:16.623Z,100002.87
2019-04-07T03:47:54.726Z,100002.34
2019-04-07T03:48:47.907Z,100002.34
2019-04-07T03:49:23.483Z,99983.86
2019-04-07T03:50:03.388Z,100001.91
2019-04-07T03:50:38.658Z,100006.11
2019-04-07T03:51:15.025Z,100003.06
2019-04-07T03:51:50.139Z,100003.06
2019-04-07T03:52:40.495Z,100005.19
2019-04-07T03:53:20.126Z,100010.75
2019-04-07T03:53:56.927Z,100013.33
2019-04-07T03:54:37.818Z,100008.62
2019-04-07T03:55:08.741Z,100011.77
2019-04-07T03:55:59.979Z,99990.31
2019-04-07T03:56:49.890Z,99990.31
2019-04-07T03:57:46.373Z,99992.40
2019-04-07T03:58:28.289Z,99992.40
2019-04-07T03:59:07.621Z,100016.42
2019-04-07T03:59:46.797Z,100010.73
2019-04-07T04:01:17.986Z,100017.05
2019-04-07T04:01:49.676Z,100016.08
2019-04-07T04:02:33.306Z,100016.08
2019-04-07T04:03:06.727Z,100017.80
2019-04-07T04:03:59.201Z,100017.80
2019-04-07T04:04:41.569Z,99996.66
2019-04-07T04:05:20.726Z,100013.42
2019-04-07T04:05:53.886Z,100013.89
2019-04-07T04:06:43.478Z,100013.89
2019-04-07T04:07:29.372Z,100015.11
2019-04-07T04:07:57.982Z,100008.93
2019-04-07T04:08:31.756Z,100009.28
2019-04-07T04:09:19.768Z,100016.21
2019-04-07T04:09:53.948Z,100016.21
2019-04-07T04:10:36.471Z,100014.00
2019-04-07T04:11:09.971Z,100012.64
2019-04-07T04:11:43.699Z,100012.64
2019-04-07T04:12:21.282Z,100010.83
2019-04-07T04:13:03.768Z,100012.97
2019-04-07T04:13:39.679Z,100015.52
2019-04-07T04:14:37.980Z,100015.52
2019-04-07T04:15:11.993Z,100011.43
2019-04-07T04:15:45.210Z,100009.33
2019-04-07T04:16:18.070Z,100011.11
2019-04-07T04:16:53.031Z,100011.11
2019-04-07T04:17:25.008Z,100014.53
2019-04-07T04:18:03.489Z,99987.31
2019-04-07T04:18:37.474Z,100007.94
2019-04-07T04:19:11.998Z,99992.83
2019-04-07T04:19:45.128Z,100010.45
2019-04-07T04:20:17.429Z,100010.45
2019-04-07T04:20:48.665Z,99991.55
2019-04-07T04:21:22.102Z,99991.55
2019-04-07T04:22:02.123Z,99993.74
2019-04-07T04:22:35.948Z,99993.74
2019-04-07T04:23:09.063Z,100010.55
2019-04-07T04:23:42.944Z,100006.58
2019-04-07T04:24:18.530Z,100008.71
2019-04-07T04:24:57.644Z,100011.78
2019-04-07T04:25:34.081Z,100010.81
2019-04-07T04:26:06.924Z,100012.03
2019-04-07T04:26:40.121Z,100017.17
2019-04-07T04:27:15.344Z,99996.84
2019-04-07T04:27:46.736Z,99996.84
2019-04-07T04:28:18.325Z,100001.99
2019-04-07T04:28:49.591Z,100015.31
2019-04-07T04:29:24.876Z,100015.31
2019-04-07T04:29:58.122Z,100004.25
2019-04-07T04:30:32.034Z,100020.67
2019-04-07T04:31:03.335Z,100016.82
2019-04-07T04:31:40.179Z,100016.82
2019-04-07T04:32:11.745Z,99989.12
2019-04-07T04:32:43.660Z,100006.28
2019-04-07T04:33:15.930Z,100020.13
2019-04-07T04:33:48.470Z,100024.60
2019-04-07T04:34:20.532Z,100024.60
2019-04-07T04:34:51.979Z,100021.28
2019-04-07T04:35:23.163Z,100021.28
2019-04-07T04:35:54.368Z,100019.30
2019-04-07T04:36:25.550Z,100019.30
2019-04-07T04:36:59.631Z,100007.76
2019-04-07T04:37:40.407Z,100027.31
2019-04-07T04:38:05.983Z,100019.94
2019-04-07T04:38:38.432Z,100024.31
2019-04-07T04:39:10.089Z,100024.31
2019-04-07T04:39:41.422Z,100026.03
2019-04-07T04:40:14.049Z,100022.95
2019-04-07T04:40:45.952Z,100018.46
2019-04-07T04:41:17.222Z,100024.50
2019-04-07T04:41:49.080Z,100021.42
2019-04-07T04:42:20.541Z,100021.42
2019-04-07T04:42:53.808Z,100016.95
2019-04-07T04:43:26.046Z,100016.95
2019-04-07T04:43:58.012Z,100016.13
2019-04-07T04:44:29.573Z,100001.60
2019-04-07T04:45:02.214Z,100001.60
2019-04-07T04:45:33.904Z,100002.16
2019-04-07T04:46:08.698Z,99993.99
2019-04-07T04:46:38.739Z,99994.34
2019-04-07T04:47:11.037Z,99994.34
2019-04-07T04:47:42.836Z,100010.67
2019-04-07T04:48:15.520Z,100014.58
2019-04-07T04:48:47.307Z,100011.20
2019-04-07T04:49:21.538Z,100012.51
2019-04-07T04:49:52.923Z,100010.73
2019-04-07T04:50:25.814Z,100008.12
2019-04-07T04:50:58.050Z,100008.12
2019-04-07T04:51:35.513Z,100014.17
2019-04-07T04:52:08.418Z,100017.72
2019-04-07T04:52:40.855Z,100015.94
2019-04-07T04:53:14.922Z,100015.94
2019-04-07T04:53:48.197Z,100011.13
2019-04-07T04:54:19.466Z,100016.91
2019-04-07T04:54:52.607Z,100015.26
2019-04-07T04:55:24.286Z,100015.26
2019-04-07T04:55:55.720Z,100016.08
2019-04-07T04:56:26.986Z,100017.33
2019-04-07T04:57:02.527Z,100019.91
2019-04-07T04:57:33.990Z,100019.91
2019-04-07T04:58:05.558Z,100011.62
2019-04-07T04:58:36.714Z,99998.84
2019-04-07T04:59:07.970Z,100017.05
2019-04-07T04:59:41.024Z,100017.05
2019-04-07T05:00:12.361Z,100017.61
2019-04-07T05:00:45.445Z,100000.87
2019-04-07T05:01:19.627Z,100000.87
2019-04-07T05:01:53.954Z,100000.87
2019-04-07T05:02:25.774Z,100023.23
2019-04-07T05:02:57.244Z,100023.23
2019-04-07T05:03:31.527Z,100009.10
2019-04-07T05:04:02.923Z,100009.10
2019-04-07T05:04:34.439Z,100003.95
2019-04-07T05:05:10.894Z,100024.66
2019-04-07T05:05:42.258Z,100024.66
2019-04-07T05:06:14.383Z,100019.80
2019-04-07T05:06:47.847Z,100019.80
2019-04-07T05:07:24.468Z,100025.41
2019-04-07T05:08:00.786Z,100025.41
2019-04-07T05:08:31.191Z,100028.78
2019-04-07T05:09:07.182Z,100033.99
2019-04-07T05:09:44.300Z,100026.26
2019-04-07T05:10:15.392Z,100034.66
2019-04-07T05:10:50.986Z,100026.87
2019-04-07T05:11:22.364Z,100029.06
2019-04-07T05:11:53.990Z,100029.06
2019-04-07T05:12:25.910Z,100009.72
2019-04-07T05:12:58.918Z,100012.05
2019-04-07T05:13:37.191Z,100011.66
2019-04-07T05:14:10.500Z,100011.66
2019-04-07T05:14:54.784Z,100027.21
2019-04-07T05:15:17.555Z,100018.28
2019-04-07T05:15:48.856Z,100036.00
2019-04-07T05:16:21.338Z,100036.00
2019-04-07T05:16:54.817Z,100013.63
2019-04-07T05:17:31.145Z,100013.63
2019-04-07T05:18:02.497Z,100034.00
2019-04-07T05:18:37.113Z,100021.11
2019-04-07T05:19:09.782Z,100040.52
2019-04-07T05:19:47.803Z,100034.36
2019-04-07T05:20:20.947Z,100034.36
2019-04-07T05:20:55.271Z,100042.12
2019-04-07T05:21:35.064Z,100013.52
2019-04-07T05:22:07.101Z,100037.99
2019-04-07T05:22:43.359Z,100043.63
2019-04-07T05:23:18.525Z,100036.61
2019-04-07T05:23:51.395Z,100036.61
2019-04-07T05:24:23.113Z,100039.71
2019-04-07T05:24:56.666Z,100035.11
2019-04-07T05:25:28.358Z,100035.11
2019-04-07T05:26:00.385Z,100028.06
2019-04-07T05:26:36.555Z,100038.84
2019-04-07T05:27:08.454Z,100038.84
2019-04-07T05:27:41.605Z,100040.25
2019-04-07T05:28:15.386Z,100036.36
2019-04-07T05:28:49.175Z,100039.50
2019-04-07T05:29:24.948Z,100043.02
2019-04-07T05:29:57.429Z,100043.02
2019-04-07T05:30:34.716Z,100023.25
2019-04-07T05:31:07.231Z,100044.03
2019-04-07T05:31:38.744Z,100044.03
2019-04-07T05:32:10.003Z,100044.09
2019-04-07T05:32:43.229Z,100038.95
2019-04-07T05:33:16.587Z,100041.64
2019-04-07T05:33:53.132Z,100041.64
2019-04-07T05:34:24.358Z,100024.22
2019-04-07T05:34:55.659Z,100043.70
2019-04-07T05:35:32.899Z,100042.45
2019-04-07T05:36:08.085Z,100042.45
2019-04-07T05:36:44.661Z,100022.34
2019-04-07T05:37:19.825Z,100039.97
2019-04-07T05:38:01.850Z,100041.87
2019-04-07T05:38:31.148Z,100036.25
2019-04-07T05:39:08.717Z,100042.88
2019-04-07T05:39:41.116Z,100019.64
2019-04-07T05:40:17.489Z,100042.54
2019-04-07T05:40:52.116Z,100042.54
2019-04-07T05:41:26.361Z,100024.09
2019-04-07T05:41:59.209Z,100038.16
2019-04-07T05:42:32.862Z,100039.58
2019-04-07T05:43:04.738Z,100040.89
2019-04-07T05:43:38.839Z,100040.48
2019-04-07T05:44:10.017Z,100044.09
2019-04-07T05:44:41.231Z,100044.09
2019-04-07T05:45:14.991Z,100037.05
2019-04-07T05:45:46.608Z,100045.41
2019-04-07T05:46:17.785Z,100048.08
2019-04-07T05:46:49.802Z,100017.94
2019-04-07T05:47:21.297Z,100017.94
2019-04-07T05:47:53.442Z,100023.21
2019-04-07T05:48:24.940Z,100038.77
2019-04-07T05:48:56.671Z,100038.77
2019-04-07T05:49:28.201Z,100041.50
2019-04-07T05:50:00.596Z,100041.50
2019-04-07T05:50:32.668Z,100036.23
2019-04-07T05:51:04.588Z,100041.52
2019-04-07T05:51:35.754Z,100046.80
2019-04-07T05:52:06.979Z,100029.30
2019-04-07T05:52:39.839Z,100029.30
2019-04-07T05:53:14.618Z,100042.80
2019-04-07T05:53:47.081Z,100038.95
2019-04-07T05:54:19.846Z,100042.16
2019-04-07T05:54:51.543Z,100035.63
2019-04-07T05:55:29.281Z,100035.63
2019-04-07T05:56:06.399Z,100038.36
2019-04-07T05:56:37.997Z,100020.31
2019-04-07T05:57:13.410Z,100020.31
2019-04-07T05:57:45.346Z,100036.75
2019-04-07T05:58:18.884Z,100011.35
2019-04-07T05:58:50.175Z,100011.35
2019-04-07T05:59:26.674Z,100032.16
2019-04-07T05:59:59.228Z,100034.41
2019-04-07T06:00:32.373Z,100027.00
2019-04-07T06:01:05.205Z,100027.00
2019-04-07T06:01:36.718Z,100018.62
2019-04-07T06:02:11.142Z,100030.24
2019-04-07T06:02:45.763Z,100030.24
2019-04-07T06:03:17.681Z,100030.77
2019-04-07T06:03:49.080Z,100036.53
2019-04-07T06:04:20.648Z,100039.67
2019-04-07T06:04:54.034Z,100029.16
2019-04-07T06:05:28.039Z,100042.41
2019-04-07T06:06:01.402Z,100040.35
2019-04-07T06:06:34.510Z,100040.35
2019-04-07T06:07:08.037Z,100036.55
2019-04-07T06:07:43.739Z,100036.55
2019-04-07T06:08:25.984Z,100021.60
2019-04-07T06:08:50.721Z,100037.66
2019-04-07T06:09:21.990Z,100039.05
2019-04-07T06:09:55.712Z,100039.05
2019-04-07T06:10:29.458Z,100040.42
2019-04-07T06:11:02.126Z,100034.41
2019-04-07T06:11:36.126Z,100034.41
2019-04-07T06:12:09.819Z,100019.91
2019-04-07T06:12:46.076Z,100041.98
2019-04-07T06:13:17.490Z,100042.92
2019-04-07T06:13:50.390Z,100036.48
2019-04-07T06:14:21.789Z,100040.50
2019-04-07T06:14:55.354Z,100041.86
2019-04-07T06:15:29.103Z,100041.86
2019-04-07T06:16:00.336Z,100041.08
2019-04-07T06:16:35.946Z,100026.16
2019-04-07T06:17:04.974Z,100043.78
2019-04-07T06:17:36.750Z,100020.61
2019-04-07T06:18:10.509Z,100020.61
2019-04-07T06:18:44.568Z,100042.68
2019-04-07T06:19:18.236Z,100045.38
2019-04-07T06:19:51.586Z,100042.86
2019-04-07T06:20:27.980Z,100043.38
2019-04-07T06:20:59.465Z,100044.31
2019-04-07T06:21:33.337Z,100041.27
2019-04-07T06:22:08.701Z,100042.16
2019-04-07T06:22:40.359Z,100043.98
2019-04-07T06:23:14.590Z,100053.19
2019-04-07T06:23:47.671Z,100047.58
2019-04-07T06:24:22.316Z,100043.27
2019-04-07T06:24:56.059Z,100048.13
2019-04-07T06:25:34.734Z,100048.56
2019-04-07T06:26:09.283Z,100050.84
2019-04-07T06:26:41.505Z,100045.65
2019-04-07T06:27:13.832Z,100049.24
2019-04-07T06:27:46.778Z,100051.91
2019-04-07T06:28:20.651Z,100048.45
2019-04-07T06:28:57.041Z,100048.45
2019-04-07T06:29:26.926Z,100031.30
2019-04-07T06:30:00.826Z,100042.40
2019-04-07T06:30:37.277Z,100046.34
2019-04-07T06:31:11.734Z,100046.34
2019-04-07T06:31:44.871Z,100038.56
2019-04-07T06:32:16.626Z,100043.80
2019-04-07T06:32:47.888Z,100045.20
2019-04-07T06:33:19.772Z,100045.20
2019-04-07T06:33:51.644Z,100044.81
2019-04-07T06:34:26.556Z,100043.50
2019-04-07T06:34:58.416Z,100040.46
2019-04-07T06:35:33.583Z,100041.38
2019-04-07T06:36:05.094Z,100042.73
2019-04-07T06:36:38.682Z,100041.05
2019-04-07T06:37:10.016Z,100047.17
2019-04-07T06:37:41.814Z,100047.22
2019-04-07T06:38:13.288Z,100047.72
2019-04-07T06:38:50.353Z,100044.67
2019-04-07T06:39:21.444Z,100047.80
2019-04-07T06:39:52.809Z,100049.14
2019-04-07T06:40:24.237Z,100040.02
2019-04-07T06:41:00.096Z,100042.25
2019-04-07T06:41:32.343Z,100047.07
2019-04-07T06:42:03.953Z,100045.83
2019-04-07T06:42:37.579Z,100042.78
2019-04-07T06:43:09.327Z,100043.25
2019-04-07T06:43:42.559Z,100041.98
2019-04-07T06:44:19.879Z,100044.67
2019-04-07T06:44:51.105Z,100042.97
2019-04-07T06:45:24.713Z,100043.89